Pearces, Michigan
Current Conditions -  °F | °C
As of 8:15 AM on Tuesday 21 Oct 2014 (Local Time) from KOZW Reporting Station
Drizzle Drizzle  
Wind Chill: 42°   Ceiling: 1300
Heat Index: 45°   Visibility: 10mi
Dew Point: 44°   Wind: 6mph
Humidity: 95%   Direction: 350°N
Pressure: 29.98"   Gusts: NA
Location:  42.7°N, 83.9305°W
Report Text: KOZW 211215Z AUTO 35005KT 10SM DZ SCT010 BKN013 OVC027 07/07 A2998 RMK AO2 T00720065
Loading
Personal Weather Stations






























Interactive Weather Map New forecast layout! Learn more

10-Day Weather Forecast

Advertisements
Track Severe Weather on mobile